createdAt,value
2022-12-24T00:02:30.034Z,8.53
2022-12-24T00:07:31.682Z,8.51
2022-12-24T00:12:32.478Z,8.45
2022-12-24T00:17:33.332Z,8.45
2022-12-24T00:22:34.080Z,8.41
2022-12-24T00:27:34.848Z,8.40
2022-12-24T00:32:37.121Z,8.46
2022-12-24T00:37:38.538Z,8.43
2022-12-24T00:42:39.305Z,8.40
2022-12-24T00:47:40.476Z,8.37
2022-12-24T00:52:41.491Z,8.42
2022-12-24T00:57:42.249Z,8.35
2022-12-24T01:02:43.223Z,8.36
2022-12-24T01:07:44.602Z,8.31
2022-12-24T01:12:46.374Z,8.26
2022-12-24T01:17:47.232Z,8.22
2022-12-24T01:22:48.184Z,8.18
2022-12-24T01:27:48.923Z,8.18
2022-12-24T01:32:49.723Z,8.23
2022-12-24T01:37:50.596Z,8.21
2022-12-24T01:43:11.110Z,8.28
2022-12-24T01:48:21.175Z,8.19
2022-12-24T01:53:22.827Z,8.14
2022-12-24T01:58:25.746Z,8.17
2022-12-24T02:03:26.768Z,8.00
2022-12-24T02:08:39.518Z,7.89
2022-12-24T02:13:44.293Z,7.75
2022-12-24T02:21:57.331Z,7.70
2022-12-24T02:27:18.488Z,7.77
2022-12-24T02:33:55.290Z,7.58
2022-12-24T02:39:07.800Z,7.50
2022-12-24T02:44:09.003Z,7.52
2022-12-24T02:49:10.427Z,7.52
2022-12-24T02:54:13.091Z,7.54
2022-12-24T02:59:34.146Z,7.58
2022-12-24T03:05:06.918Z,7.69
2022-12-24T03:10:29.162Z,7.76
2022-12-24T03:15:31.348Z,7.84
2022-12-24T03:20:40.530Z,7.84
2022-12-24T03:25:43.600Z,7.87
2022-12-24T03:30:47.574Z,7.87
2022-12-24T03:35:48.361Z,7.90
2022-12-24T03:40:49.163Z,7.99
2022-12-24T03:45:49.963Z,8.06
2022-12-24T03:50:51.022Z,8.09
2022-12-24T03:55:51.753Z,8.09
2022-12-24T04:00:53.404Z,8.07
2022-12-24T04:06:10.216Z,8.04
2022-12-24T04:11:13.982Z,8.06
2022-12-24T04:16:15.961Z,8.04
2022-12-24T04:21:17.357Z,8.06
2022-12-24T04:26:18.403Z,8.05
2022-12-24T04:31:19.259Z,8.13
2022-12-24T04:36:20.530Z,8.08
2022-12-24T04:41:24.788Z,8.03
2022-12-24T04:46:31.458Z,8.09
2022-12-24T04:51:32.501Z,8.11
2022-12-24T04:56:33.301Z,8.12
2022-12-24T05:01:34.323Z,8.09
2022-12-24T05:06:35.260Z,8.06
2022-12-24T05:11:36.001Z,8.05
2022-12-24T05:16:38.335Z,8.12
2022-12-24T05:21:39.394Z,8.08
2022-12-24T05:26:47.440Z,8.06
2022-12-24T05:31:49.158Z,8.03
2022-12-24T05:36:49.908Z,8.03
2022-12-24T05:41:50.672Z,8.09
2022-12-24T05:46:51.421Z,8.01
2022-12-24T05:51:52.301Z,8.00
2022-12-24T05:56:53.037Z,8.01
2022-12-24T06:01:53.894Z,8.14
2022-12-24T06:06:54.719Z,8.15
2022-12-24T06:11:55.655Z,8.23
2022-12-24T06:16:56.419Z,8.34
2022-12-24T06:21:57.785Z,8.36
2022-12-24T06:26:58.558Z,8.33
2022-12-24T06:31:59.371Z,8.25
2022-12-24T06:37:00.164Z,8.30
2022-12-24T06:42:00.945Z,8.22
2022-12-24T06:47:01.815Z,8.20
2022-12-24T06:52:02.926Z,8.18
2022-12-24T06:57:03.723Z,8.33
2022-12-24T07:02:04.695Z,8.14
2022-12-24T07:07:05.565Z,8.12
2022-12-24T07:12:06.464Z,8.15
2022-12-24T07:17:07.334Z,8.11
2022-12-24T07:22:14.999Z,8.23
2022-12-24T07:27:16.727Z,8.11
2022-12-24T07:32:19.613Z,8.12
2022-12-24T07:37:20.427Z,8.14
2022-12-24T07:42:21.256Z,8.15
2022-12-24T07:47:22.041Z,8.05
2022-12-24T07:52:22.867Z,8.09
2022-12-24T07:57:23.634Z,8.07
2022-12-24T08:02:24.590Z,8.00
2022-12-24T08:07:25.852Z,7.99
2022-12-24T08:12:26.630Z,8.00
2022-12-24T08:17:32.159Z,7.96
2022-12-24T08:22:33.984Z,7.99
2022-12-24T08:27:35.189Z,7.98
2022-12-24T08:32:35.988Z,7.96
2022-12-24T08:37:36.707Z,8.13
2022-12-24T08:42:37.803Z,8.15
2022-12-24T08:47:38.811Z,8.09
2022-12-24T08:52:39.718Z,8.09
2022-12-24T08:57:40.462Z,8.21
2022-12-24T09:02:41.554Z,8.15
2022-12-24T09:07:42.417Z,8.25
2022-12-24T09:12:43.201Z,8.25
2022-12-24T09:17:43.966Z,8.41
2022-12-24T09:22:44.989Z,8.46
2022-12-24T09:27:45.752Z,8.49
2022-12-24T09:32:46.537Z,8.61
2022-12-24T09:37:47.304Z,8.69
2022-12-24T09:42:53.400Z,8.91
2022-12-24T09:48:03.368Z,8.92
2022-12-24T09:53:13.469Z,8.91
2022-12-24T09:58:22.720Z,8.95
2022-12-24T10:03:23.948Z,9.01
2022-12-24T10:08:51.455Z,9.06
2022-12-24T10:14:22.222Z,9.06
2022-12-24T10:19:36.662Z,9.10
2022-12-24T10:24:53.780Z,9.09
2022-12-24T10:30:01.434Z,8.97
2022-12-24T10:35:22.143Z,8.91
2022-12-24T10:40:34.916Z,8.91
2022-12-24T10:45:42.120Z,9.03
2022-12-24T10:50:53.641Z,8.98
2022-12-24T10:56:05.157Z,8.95
2022-12-24T11:01:06.029Z,8.80
2022-12-24T11:06:13.096Z,8.72
2022-12-24T11:11:20.964Z,8.67
2022-12-24T11:16:36.193Z,8.70
2022-12-24T11:21:40.177Z,8.65
2022-12-24T11:26:43.266Z,8.71
2022-12-24T11:31:44.987Z,8.85
2022-12-24T11:36:45.782Z,9.18
2022-12-24T11:41:47.188Z,9.86
2022-12-24T11:46:51.661Z,9.72
2022-12-24T11:52:11.478Z,9.62
2022-12-24T11:57:16.477Z,9.56
2022-12-24T12:02:28.069Z,9.28
2022-12-24T12:07:36.356Z,9.21
2022-12-24T12:12:42.290Z,9.24
2022-12-24T12:17:56.170Z,9.31
2022-12-24T12:23:25.352Z,9.30
2022-12-24T12:30:02.168Z,9.27
2022-12-24T12:35:22.398Z,9.32
2022-12-24T12:40:38.149Z,9.37
2022-12-24T12:45:53.399Z,9.49
2022-12-24T12:51:54.106Z,9.54
2022-12-24T12:57:03.821Z,9.40
2022-12-24T13:02:24.513Z,9.36
2022-12-24T13:08:25.056Z,9.39
2022-12-24T13:13:53.384Z,9.41
2022-12-24T13:19:13.954Z,9.26
2022-12-24T13:24:22.158Z,9.25
2022-12-24T13:29:38.713Z,9.13
2022-12-24T13:34:46.581Z,9.19
2022-12-24T13:46:50.224Z,9.21
2022-12-24T13:52:09.462Z,9.22
2022-12-24T13:59:21.716Z,9.19
2022-12-24T14:04:28.287Z,9.27
2022-12-24T14:09:32.013Z,9.41
2022-12-24T14:14:39.202Z,9.45
2022-12-24T14:19:47.623Z,9.34
2022-12-24T14:25:06.383Z,9.22
2022-12-24T14:30:18.842Z,9.18
2022-12-24T14:35:39.603Z,9.16
2022-12-24T14:42:40.818Z,9.18
2022-12-24T14:48:51.476Z,9.09
2022-12-24T14:55:45.481Z,8.97
2022-12-24T15:00:46.516Z,8.84
2022-12-24T15:06:00.878Z,8.84
2022-12-24T15:11:06.410Z,8.87
2022-12-24T15:16:10.765Z,8.96
2022-12-24T15:21:25.460Z,8.92
2022-12-24T15:26:34.175Z,8.94
2022-12-24T15:31:35.008Z,8.85
2022-12-24T15:36:36.650Z,8.78
2022-12-24T15:42:12.544Z,8.82
2022-12-24T15:47:17.220Z,8.75
2022-12-24T15:52:23.888Z,8.64
2022-12-24T15:57:33.087Z,8.54
2022-12-24T16:02:42.271Z,8.58
2022-12-24T16:08:44.743Z,8.59
2022-12-24T16:14:11.655Z,8.44
2022-12-24T16:19:21.129Z,8.48
2022-12-24T16:24:30.361Z,8.52
2022-12-24T16:29:31.188Z,8.45
2022-12-24T16:34:32.570Z,8.42
2022-12-24T16:39:34.565Z,8.45
2022-12-24T16:44:36.179Z,8.28
2022-12-24T16:49:38.137Z,8.32
2022-12-24T16:54:38.872Z,8.36
2022-12-24T16:59:39.744Z,8.34
2022-12-24T17:04:41.785Z,8.26
2022-12-24T17:09:43.043Z,8.15
2022-12-24T17:14:44.016Z,8.20
2022-12-24T17:19:44.908Z,8.25
2022-12-24T17:24:46.429Z,8.33
2022-12-24T17:29:47.145Z,8.28
2022-12-24T17:34:47.916Z,8.32
2022-12-24T17:39:48.632Z,8.37
2022-12-24T17:44:49.542Z,8.41
2022-12-24T17:49:50.268Z,8.43
2022-12-24T17:54:51.050Z,8.53
2022-12-24T17:59:51.791Z,8.41
2022-12-24T18:04:53.850Z,8.44
2022-12-24T18:09:54.574Z,8.47
2022-12-24T18:14:55.615Z,8.39
2022-12-24T18:19:56.387Z,8.41
2022-12-24T18:24:57.175Z,8.33
2022-12-24T18:29:57.924Z,8.36
2022-12-24T18:34:58.843Z,8.39
2022-12-24T18:39:59.854Z,8.38
2022-12-24T18:45:01.123Z,8.34
2022-12-24T18:50:01.922Z,8.31
2022-12-24T18:55:02.904Z,8.32
2022-12-24T19:00:04.679Z,8.21
2022-12-24T19:05:06.547Z,8.32
2022-12-24T19:10:08.527Z,8.35
2022-12-24T19:15:10.097Z,8.27
2022-12-24T19:20:11.857Z,8.20
2022-12-24T19:25:12.675Z,8.30
2022-12-24T19:30:13.864Z,8.18
2022-12-24T19:35:14.843Z,8.15
2022-12-24T19:40:15.661Z,8.28
2022-12-24T19:45:16.623Z,8.24
2022-12-24T19:50:19.140Z,8.14
2022-12-24T19:55:20.394Z,8.14
2022-12-24T20:00:21.271Z,8.21
2022-12-24T20:05:22.030Z,8.23
2022-12-24T20:10:22.775Z,8.11
2022-12-24T20:15:23.712Z,8.12
2022-12-24T20:20:24.513Z,8.24
2022-12-24T20:25:25.480Z,8.53
2022-12-24T20:30:26.408Z,8.46
2022-12-24T20:35:27.246Z,8.46
2022-12-24T20:40:27.971Z,8.31
2022-12-24T20:45:28.935Z,8.28
2022-12-24T20:50:30.886Z,8.24
2022-12-24T20:55:31.692Z,8.21
2022-12-24T21:00:33.328Z,8.23
2022-12-24T21:05:34.118Z,8.30
2022-12-24T21:10:35.377Z,8.30
2022-12-24T21:15:41.575Z,8.33
2022-12-24T21:20:42.629Z,8.25
2022-12-24T21:25:43.439Z,8.20
2022-12-24T21:30:44.415Z,8.09
2022-12-24T21:35:45.889Z,8.06
2022-12-24T21:41:00.168Z,8.06
2022-12-24T21:46:06.956Z,8.07
2022-12-24T21:51:07.807Z,8.03
2022-12-24T21:56:10.546Z,8.13
2022-12-24T22:01:11.433Z,8.08
2022-12-24T22:11:53.560Z,8.05
2022-12-24T22:16:55.646Z,8.11
2022-12-24T22:21:56.498Z,8.04
2022-12-24T22:26:57.476Z,7.95
2022-12-24T22:31:58.653Z,8.03
2022-12-24T22:36:59.459Z,8.03
2022-12-24T22:42:00.284Z,8.06
2022-12-24T22:47:01.525Z,7.97
2022-12-24T22:52:02.534Z,7.93
2022-12-24T22:57:03.332Z,8.01
2022-12-24T23:02:06.214Z,8.01
2022-12-24T23:07:10.577Z,7.94
2022-12-24T23:12:11.374Z,7.91
2022-12-24T23:17:13.220Z,7.95
2022-12-24T23:22:14.044Z,7.90
2022-12-24T23:27:14.936Z,7.91
2022-12-24T23:32:15.677Z,7.98
2022-12-24T23:37:16.479Z,7.86
2022-12-24T23:42:17.204Z,8.11
2022-12-24T23:47:19.063Z,8.00
2022-12-24T23:52:19.900Z,8.01
2022-12-24T23:57:20.744Z,8.05
